Terminal Aerodrome Forecast
Issued by NWS

Home | Current Version | Previous Version | Graphics & Text | Print | Product List | Glossary On
Versions: 1 2 3 4 5 6 7 8 9 10 11 12 13 14 15 16
000
FTUS43 KMPX 272300
TAFAXN
TAF
KAXN 272332Z 2800/2824 13003KT P6SM SCT035 SCT250
     FM280900 12005KT P6SM BKN250
     FM281500 12010KT P6SM SCT050 OVC150 PROB30 2820/2824 6SM -SHRA
      OVC040=

USA.gov is the U.S. government's official web portal to all federal, state and local government web resources and services.